Time;durP1;ratioP1;P1;durP2;ratioP2;P2;SDS_P1;SDS_P2;PMS_P1;PMS_P2;Temp;Humidity;BMP_temperature;BMP_pressure;BME280_temperature;BME280_humidity;BME280_pressure;Samples;Min_cycle;Max_cycle;Signal;HPM_P1;HPM_P2
2022/08/09 00:00:24;;;;;;;0.20;0.20;;;;;;;21.52;42.95;101987.06;5227718;28;20081;-79
2022/08/09 00:02:54;;;;;;;0.50;0.50;;;;;;;21.54;42.97;101987.81;5222576;28;20047;-79
2022/08/09 00:05:25;;;;;;;0.47;0.30;;;;;;;21.49;44.55;101989.88;5208622;28;20040;-79
2022/08/09 00:07:55;;;;;;;0.20;0.20;;;;;;;21.48;42.67;101986.34;5259401;28;20023;-78
2022/08/09 00:10:26;;;;;;;3.13;0.60;;;;;;;21.44;43.41;101983.94;5220948;28;20545;-79
2022/08/09 00:12:56;;;;;;;0.20;0.20;;;;;;;21.41;43.78;101986.75;5181924;28;20771;-78
2022/08/09 00:15:27;;;;;;;0.50;0.50;;;;;;;21.41;42.66;101976.06;5207151;28;20025;-79
2022/08/09 00:17:58;;;;;;;0.22;0.22;;;;;;;21.37;43.36;101981.56;5210751;28;20065;-79
2022/08/09 00:20:29;;;;;;;0.28;0.28;;;;;;;21.36;42.70;101979.84;5222342;28;20179;-79
2022/08/09 00:23:02;;;;;;;0.40;0.40;;;;;;;21.32;42.96;101969.44;5221891;28;20545;-79
2022/08/09 00:25:33;;;;;;;0.35;0.35;;;;;;;21.28;43.56;101975.84;5213444;28;20061;-79
2022/08/09 00:28:06;;;;;;;0.45;0.43;;;;;;;21.25;44.29;101979.56;5211031;28;20057;-79
2022/08/09 00:30:37;;;;;;;0.50;0.50;;;;;;;21.21;44.28;101976.19;5231000;28;20169;-79
2022/08/09 00:33:11;;;;;;;0.30;0.30;;;;;;;21.19;44.61;101983.41;5199081;28;20071;-79
2022/08/09 00:35:41;;;;;;;3.17;1.23;;;;;;;21.19;43.40;101985.22;5207789;28;20552;-79
2022/08/09 00:38:14;;;;;;;1.20;0.93;;;;;;;21.16;44.93;101982.69;5211089;28;20036;-79
2022/08/09 00:40:46;;;;;;;0.30;0.30;;;;;;;21.13;44.06;101973.06;5229753;28;20033;-79
2022/08/09 00:43:16;;;;;;;0.45;0.45;;;;;;;21.10;44.80;101983.03;5200486;28;20040;-78
2022/08/09 00:45:49;;;;;;;0.25;0.25;;;;;;;21.10;43.68;101985.69;5198545;28;20304;-79
2022/08/09 00:48:19;;;;;;;1.85;0.55;;;;;;;21.06;44.74;101983.16;5210598;28;20033;-79
2022/08/09 00:50:50;;;;;;;0.30;0.30;;;;;;;21.06;44.07;101985.84;5205561;28;20043;-80
2022/08/09 00:53:21;;;;;;;0.30;0.30;;;;;;;21.02;43.91;101988.75;5224958;28;20119;-80
2022/08/09 00:55:54;;;;;;;1.98;0.70;;;;;;;20.99;44.12;101981.75;5232140;28;20055;-79
2022/08/09 00:58:25;;;;;;;0.45;0.45;;;;;;;20.94;44.40;101983.81;5205905;28;20257;-79
2022/08/09 01:00:57;;;;;;;0.20;0.20;;;;;;;20.92;44.95;101981.22;5214212;28;20148;-79
2022/08/09 01:03:56;;;;;;;0.75;0.45;;;;;;;20.92;44.44;101983.03;5197172;28;20029;-79
2022/08/09 01:06:37;;;;;;;0.55;0.55;;;;;;;20.87;45.05;101977.03;5218006;28;20102;-80
2022/08/09 01:09:19;;;;;;;2.65;0.75;;;;;;;20.84;44.49;101974.56;5219646;28;20660;-80
2022/08/09 01:12:01;;;;;;;0.32;0.28;;;;;;;20.84;44.18;101982.56;5209908;28;20045;-80
2022/08/09 01:14:38;;;;;;;0.50;0.50;;;;;;;20.82;44.43;101979.09;5203495;28;20037;-79
2022/08/09 01:17:21;;;;;;;0.30;0.30;;;;;;;20.78;44.77;101982.88;5216253;28;20131;-79
2022/08/09 01:20:01;;;;;;;0.20;0.20;;;;;;;20.77;44.61;101975.81;5218147;28;20028;-79
2022/08/09 01:22:51;;;;;;;0.45;0.45;;;;;;;20.74;44.39;101974.16;5203242;28;20037;-80
2022/08/09 01:25:49;;;;;;;2.28;0.25;;;;;;;20.74;44.49;101982.16;5203099;28;20133;-79
2022/08/09 01:28:22;;;;;;;0.40;0.40;;;;;;;20.69;44.99;101979.69;5214128;28;20110;-79
2022/08/09 01:30:56;;;;;;;0.20;0.20;;;;;;;20.66;45.03;101987.81;5208251;28;20136;-79
2022/08/09 01:33:31;;;;;;;0.50;0.50;;;;;;;20.65;44.95;101983.44;5181932;28;20033;-79
2022/08/09 01:36:08;;;;;;;0.30;0.30;;;;;;;20.63;44.90;101979.13;5215785;28;20777;-80
2022/08/09 01:38:46;;;;;;;0.60;0.60;;;;;;;20.57;46.31;101980.28;5231819;28;20147;-79
2022/08/09 01:41:23;;;;;;;0.40;0.40;;;;;;;20.61;45.56;101979.22;5201729;28;20049;-79
2022/08/09 01:43:56;;;;;;;0.30;0.30;;;;;;;20.54;45.72;101983.09;5220376;28;20081;-79
2022/08/09 01:46:37;;;;;;;0.22;0.22;;;;;;;20.50;46.15;101981.53;5177379;28;20045;-79
2022/08/09 01:49:18;;;;;;;0.20;0.20;;;;;;;20.45;46.07;101981.75;5211774;28;20044;-81
2022/08/09 01:51:52;;;;;;;1.02;0.30;;;;;;;20.47;46.48;101979.00;5219905;28;20033;-79
2022/08/09 01:54:34;;;;;;;0.30;0.30;;;;;;;20.44;45.59;101980.91;5208620;28;20041;-80
2022/08/09 01:57:15;;;;;;;0.30;0.30;;;;;;;20.37;45.93;101984.78;5206195;28;20045;-79
2022/08/09 01:59:49;;;;;;;0.30;0.30;;;;;;;20.37;45.91;101976.78;5217266;28;20036;-79
2022/08/09 02:02:25;;;;;;;0.30;0.30;;;;;;;20.33;46.07;101979.69;5203569;28;20041;-79
2022/08/09 02:04:59;;;;;;;0.52;0.52;;;;;;;20.34;45.45;101976.06;5208710;28;20041;-79
2022/08/09 02:07:33;;;;;;;0.32;0.32;;;;;;;20.30;45.67;101975.34;5194704;28;20178;-79
2022/08/09 02:10:17;;;;;;;0.30;0.30;;;;;;;20.24;46.01;101983.66;5188940;28;20077;-79
2022/08/09 02:12:49;;;;;;;0.20;0.20;;;;;;;20.26;46.22;101987.13;5230860;28;20485;-79
2022/08/09 02:15:22;;;;;;;0.50;0.50;;;;;;;20.25;45.49;101991.56;5221231;28;20045;-79
2022/08/09 02:17:56;;;;;;;0.28;0.28;;;;;;;20.26;45.49;101984.44;5184741;28;20225;-79
2022/08/09 02:20:28;;;;;;;0.57;0.57;;;;;;;20.21;46.77;101989.13;5207641;28;20045;-79
2022/08/09 02:23:14;;;;;;;0.30;0.30;;;;;;;20.16;46.31;101985.81;5212503;28;20029;-79
2022/08/09 02:25:50;;;;;;;0.20;0.20;;;;;;;20.15;46.40;101989.41;5218259;28;20029;-79
2022/08/09 02:28:31;;;;;;;0.63;0.63;;;;;;;20.15;46.68;101984.09;5200335;28;20039;-79
2022/08/09 02:31:11;;;;;;;0.30;0.30;;;;;;;20.13;46.32;101984.16;5202811;28;20083;-79
2022/08/09 02:33:44;;;;;;;0.40;0.40;;;;;;;20.11;46.26;101978.94;5187495;28;20033;-80
2022/08/09 02:36:20;;;;;;;0.30;0.30;;;;;;;20.09;47.31;101980.78;5193123;28;20049;-79
2022/08/09 02:38:54;;;;;;;0.43;0.43;;;;;;;20.10;46.33;101979.84;5217189;28;20037;-79
2022/08/09 02:41:35;;;;;;;0.32;0.32;;;;;;;20.04;46.40;101977.47;5172643;28;20052;-80
2022/08/09 02:44:19;;;;;;;0.20;0.20;;;;;;;20.01;46.91;101972.28;5194000;28;20056;-79
2022/08/09 02:46:50;;;;;;;;;;;;;;;19.98;46.59;101977.75;5212506;28;20033;-79
2022/08/09 02:49:21;;;;;;;0.40;0.40;;;;;;;19.96;47.03;101979.63;5231773;28;19913;-79
2022/08/09 02:51:56;;;;;;;0.35;0.35;;;;;;;19.94;46.90;101974.38;5194600;28;20047;-79
2022/08/09 02:54:28;;;;;;;0.60;0.60;;;;;;;19.91;47.71;101978.97;5190707;28;20029;-79
2022/08/09 02:57:01;;;;;;;3.35;0.40;;;;;;;19.88;47.51;101979.13;5185304;28;20044;-79
2022/08/09 02:59:36;;;;;;;0.38;0.38;;;;;;;19.89;47.00;101980.84;5210026;28;20024;-79
2022/08/09 03:02:11;;;;;;;3.22;0.57;;;;;;;19.90;46.15;101975.47;5235190;28;20076;-79
2022/08/09 03:04:44;;;;;;;0.43;0.43;;;;;;;19.87;47.05;101974.75;5187990;28;20054;-79
2022/08/09 03:07:17;;;;;;;;;;;;;;;19.85;46.56;101972.13;5217121;28;20041;-80
2022/08/09 03:09:49;;;;;;;0.63;0.63;;;;;;;19.82;47.23;101973.13;5219053;28;19913;-80
2022/08/09 03:12:22;;;;;;;0.30;0.30;;;;;;;19.81;47.02;101971.38;5179330;28;20037;-79
2022/08/09 03:14:53;;;;;;;0.50;0.50;;;;;;;19.80;47.43;101974.97;5228505;28;20323;-80
2022/08/09 03:17:28;;;;;;;0.38;0.38;;;;;;;19.78;46.92;101974.22;5229993;28;20151;-80
2022/08/09 03:20:00;;;;;;;0.35;0.35;;;;;;;19.76;47.52;101970.75;5250638;28;20063;-79
2022/08/09 03:22:39;;;;;;;0.35;0.35;;;;;;;19.73;46.69;101968.22;5204552;28;20536;-80
2022/08/09 03:25:13;;;;;;;0.22;0.22;;;;;;;19.73;46.75;101972.69;5215111;28;20040;-79
2022/08/09 03:27:47;;;;;;;0.30;0.30;;;;;;;19.70;47.37;101971.03;5217364;28;20041;-79
2022/08/09 03:30:18;;;;;;;0.40;0.40;;;;;;;19.69;47.54;101971.09;5214862;28;20119;-79
2022/08/09 03:32:51;;;;;;;0.35;0.35;;;;;;;19.66;47.38;101972.97;5204799;28;20025;-79
2022/08/09 03:35:22;;;;;;;0.28;0.28;;;;;;;19.61;47.50;101977.63;5219872;28;20059;-79
2022/08/09 03:37:53;;;;;;;0.93;0.85;;;;;;;19.60;47.71;101983.03;5189028;28;20029;-79
2022/08/09 03:40:26;;;;;;;0.30;0.30;;;;;;;19.62;46.88;101981.16;5232319;28;20041;-79
2022/08/09 03:42:59;;;;;;;0.32;0.32;;;;;;;19.58;47.90;101976.91;5206216;28;20048;-79
2022/08/09 03:45:30;;;;;;;0.20;0.20;;;;;;;19.58;48.07;101984.88;5215911;28;20094;-79
2022/08/09 03:48:03;;;;;;;0.30;0.30;;;;;;;19.54;47.77;101984.16;5225307;28;20068;-79
2022/08/09 03:50:36;;;;;;;0.45;0.45;;;;;;;19.54;47.27;101988.63;5207056;28;20049;-79
2022/08/09 03:53:09;;;;;;;0.22;0.22;;;;;;;19.48;47.99;101985.28;5211282;28;20033;-79
2022/08/09 03:55:42;;;;;;;1.13;1.05;;;;;;;19.49;47.35;101984.38;5203221;28;20072;-79
2022/08/09 03:58:13;;;;;;;0.73;0.73;;;;;;;19.46;47.61;101989.81;5219186;28;20061;-79
2022/08/09 04:00:45;;;;;;;0.32;0.32;;;;;;;19.44;49.97;101986.38;5217582;28;20037;-79
2022/08/09 04:03:16;;;;;;;0.30;0.30;;;;;;;19.41;49.27;101983.84;5203219;28;20551;-80
2022/08/09 04:05:49;;;;;;;;;;;;;;;19.39;48.02;101985.69;5204743;28;20045;-79
2022/08/09 04:08:19;;;;;;;0.50;0.50;;;;;;;19.37;48.27;101987.59;5195644;28;19973;-79
2022/08/09 04:10:50;;;;;;;0.50;0.50;;;;;;;19.37;47.67;101992.03;5187788;28;20055;-79
2022/08/09 04:13:23;;;;;;;2.83;1.52;;;;;;;19.33;48.76;101991.31;5213710;28;20032;-79
2022/08/09 04:15:57;;;;;;;0.22;0.22;;;;;;;19.34;48.32;101993.88;5201128;28;20087;-79
2022/08/09 04:18:27;;;;;;;0.30;0.30;;;;;;;19.33;47.87;102001.94;5248542;28;20581;-80
2022/08/09 04:20:58;;;;;;;0.20;0.20;;;;;;;19.31;47.83;102009.13;5191020;28;20048;-80
2022/08/09 04:23:28;;;;;;;0.32;0.30;;;;;;;19.27;48.09;102012.88;5215046;28;20044;-82
2022/08/09 04:25:59;;;;;;;0.70;0.50;;;;;;;19.26;48.67;102013.78;5205703;28;20137;-82
2022/08/09 04:28:30;;;;;;;0.50;0.50;;;;;;;19.22;48.39;102012.19;5204605;28;20032;-79
2022/08/09 04:31:00;;;;;;;0.45;0.40;;;;;;;19.19;48.57;102016.72;5230119;28;20125;-80
2022/08/09 04:33:31;;;;;;;0.30;0.30;;;;;;;19.18;49.20;102019.44;5201273;28;20155;-81
2022/08/09 04:36:02;;;;;;;0.28;0.28;;;;;;;19.17;48.52;102020.38;5172669;28;20243;-82
2022/08/09 04:38:32;;;;;;;0.28;0.20;;;;;;;19.18;48.43;102022.09;5183841;28;20037;-81
2022/08/09 04:41:06;;;;;;;0.28;0.28;;;;;;;19.15;48.60;102030.22;5217059;28;20044;-82
2022/08/09 04:43:54;;;;;;;0.40;0.40;;;;;;;19.13;48.91;102026.75;5221134;28;20050;-82
2022/08/09 04:46:25;;;;;;;0.30;0.30;;;;;;;19.11;48.81;102023.28;5199947;28;20405;-83
2022/08/09 04:48:55;;;;;;;0.57;0.57;;;;;;;19.10;48.77;102024.22;5229731;28;20029;-81
2022/08/09 04:51:26;;;;;;;0.98;0.40;;;;;;;19.09;48.75;102023.34;5205031;28;20101;-81
2022/08/09 04:53:57;;;;;;;0.43;0.43;;;;;;;19.08;48.97;102024.28;5223458;28;20124;-80
2022/08/09 04:56:29;;;;;;;0.73;0.73;;;;;;;19.09;48.57;102026.03;5208133;28;20543;-80
2022/08/09 04:59:08;;;;;;;4.95;1.75;;;;;;;19.10;48.47;102027.75;5202123;28;20032;-81
2022/08/09 05:01:38;;;;;;;0.20;0.20;;;;;;;19.09;49.35;102026.03;5193813;28;20033;-82
2022/08/09 05:04:10;;;;;;;0.60;0.60;;;;;;;19.08;48.67;102032.25;5219356;28;20528;-81
2022/08/09 05:06:41;;;;;;;0.38;0.38;;;;;;;19.06;49.83;102026.13;5200845;28;20053;-81
2022/08/09 05:09:11;;;;;;;0.30;0.30;;;;;;;19.06;49.06;102026.13;5202283;28;20044;-81
2022/08/09 05:11:42;;;;;;;0.73;0.68;;;;;;;19.05;49.49;102028.88;5225648;28;20033;-81
2022/08/09 05:14:13;;;;;;;0.20;0.20;;;;;;;19.06;48.92;102030.59;5184789;28;20135;-81
2022/08/09 05:16:43;;;;;;;0.30;0.30;;;;;;;19.08;49.39;102031.41;5227456;28;20033;-81
2022/08/09 05:19:16;;;;;;;0.40;0.40;;;;;;;19.03;49.80;102036.94;5195465;28;20047;-81
2022/08/09 05:21:50;;;;;;;0.20;0.20;;;;;;;19.07;50.26;102032.34;5203756;28;20036;-81
2022/08/09 05:24:20;;;;;;;0.20;0.20;;;;;;;19.01;50.59;102033.47;5222077;28;20048;-81
2022/08/09 05:26:52;;;;;;;0.20;0.20;;;;;;;19.05;49.45;102028.88;5239005;28;20040;-81
2022/08/09 05:29:22;;;;;;;0.63;0.38;;;;;;;19.04;51.30;102028.03;5243206;28;20025;-81
2022/08/09 05:31:58;;;;;;;0.40;0.40;;;;;;;19.05;51.76;102036.84;5209252;28;20095;-81
2022/08/09 05:34:30;;;;;;;0.40;0.40;;;;;;;19.05;50.12;102036.84;5204213;28;20047;-81
2022/08/09 05:37:06;;;;;;;0.65;0.65;;;;;;;19.03;50.26;102039.59;5195214;28;20041;-81
2022/08/09 05:39:39;;;;;;;0.30;0.30;;;;;;;19.05;50.59;102035.03;5204448;28;20063;-81
2022/08/09 05:42:16;;;;;;;0.57;0.57;;;;;;;19.04;51.09;102041.31;5211813;28;20133;-81
2022/08/09 05:44:47;;;;;;;0.30;0.30;;;;;;;19.08;49.78;102040.25;5214985;28;20060;-81
2022/08/09 05:47:22;;;;;;;0.30;0.30;;;;;;;19.07;50.77;102037.66;5185540;28;20097;-81
2022/08/09 05:49:54;;;;;;;0.57;0.57;;;;;;;19.04;52.09;102041.31;5181630;28;20024;-81
2022/08/09 05:52:24;;;;;;;0.68;0.68;;;;;;;19.09;50.83;102049.09;5210887;28;20076;-81
2022/08/09 05:54:55;;;;;;;0.52;0.40;;;;;;;19.13;50.82;102040.91;5217408;28;20549;-81
2022/08/09 05:57:25;;;;;;;0.70;0.70;;;;;;;19.11;52.19;102048.09;5184329;28;20055;-81
2022/08/09 05:59:56;;;;;;;0.70;0.70;;;;;;;19.11;52.39;102048.09;5217506;28;20270;-81
2022/08/09 06:02:26;;;;;;;0.40;0.40;;;;;;;19.15;52.07;102041.72;5214919;28;20124;-81
2022/08/09 06:04:57;;;;;;;0.38;0.38;;;;;;;19.17;51.94;102047.84;5199091;28;20060;-81
2022/08/09 06:07:28;;;;;;;0.30;0.30;;;;;;;19.22;53.89;102052.97;5197207;28;20088;-82
2022/08/09 06:09:59;;;;;;;0.52;0.52;;;;;;;19.21;51.55;102047.72;5217934;28;20063;-82
2022/08/09 06:12:31;;;;;;;0.50;0.50;;;;;;;19.27;52.36;102053.63;5198034;28;20037;-82
2022/08/09 06:15:04;;;;;;;0.40;0.40;;;;;;;19.21;54.76;102050.38;5205334;28;20040;-82
2022/08/09 06:17:38;;;;;;;0.20;0.20;;;;;;;19.23;53.75;102053.81;5197239;28;20277;-82
2022/08/09 06:20:09;;;;;;;0.80;0.80;;;;;;;19.28;52.14;102049.19;5202085;28;20041;-82
2022/08/09 06:22:40;;;;;;;0.30;0.30;;;;;;;19.24;53.00;102050.22;5205823;28;20116;-81
2022/08/09 06:25:10;;;;;;;0.35;0.30;;;;;;;19.27;54.17;102055.44;5218218;28;20048;-83
2022/08/09 06:27:41;;;;;;;0.35;0.35;;;;;;;19.31;51.89;102051.69;5220663;28;20025;-82
2022/08/09 06:30:14;;;;;;;0.30;0.30;;;;;;;19.33;51.99;102055.16;5211931;28;20105;-82
2022/08/09 06:32:47;;;;;;;0.82;0.68;;;;;;;19.34;52.09;102059.56;5230536;28;20017;-82
2022/08/09 06:35:21;;;;;;;0.47;0.47;;;;;;;19.36;52.21;102060.38;5187972;28;20037;-82
2022/08/09 06:37:52;;;;;;;0.70;0.70;;;;;;;19.38;52.45;102052.31;5213496;28;20021;-83
2022/08/09 06:40:23;;;;;;;0.57;0.57;;;;;;;19.39;53.21;102054.91;5211156;28;20045;-82
2022/08/09 06:42:53;;;;;;;0.40;0.40;;;;;;;19.45;52.73;102054.66;5230339;28;20024;-82
2022/08/09 06:45:24;;;;;;;1.65;0.50;;;;;;;19.42;52.48;102059.25;5222212;28;20047;-82
2022/08/09 06:47:55;;;;;;;0.38;0.38;;;;;;;19.51;52.21;102069.47;5230165;28;20552;-81
2022/08/09 06:50:25;;;;;;;0.90;0.90;;;;;;;19.49;53.53;102066.03;5196446;28;20064;-81
2022/08/09 06:52:57;;;;;;;0.45;0.45;;;;;;;19.49;54.75;102066.88;5218104;28;20060;-81
2022/08/09 06:55:30;;;;;;;0.57;0.57;;;;;;;19.52;53.44;102071.19;5226342;28;20025;-80
2022/08/09 06:58:01;;;;;;;;;;;;;;;19.55;52.94;102067.53;5218401;28;20195;-81
2022/08/09 07:00:34;;;;;;;0.52;0.52;;;;;;;19.59;53.37;102072.66;5203715;28;20559;-81
2022/08/09 07:03:04;;;;;;;2.45;0.70;;;;;;;19.61;53.22;102067.28;5215058;28;20033;-81
2022/08/09 07:05:35;;;;;;;0.50;0.50;;;;;;;19.63;53.16;102068.94;5221850;28;20068;-81
2022/08/09 07:08:05;;;;;;;1.15;1.15;;;;;;;19.71;52.67;102063.25;5218939;28;20077;-81
2022/08/09 07:10:36;;;;;;;0.40;0.40;;;;;;;19.79;53.11;102066.44;5243412;28;20099;-81
2022/08/09 07:13:07;;;;;;;0.20;0.20;;;;;;;19.77;52.11;102064.78;5221068;28;20029;-81
2022/08/09 07:15:38;;;;;;;0.45;0.45;;;;;;;19.73;53.06;102064.06;5200424;28;20100;-80
2022/08/09 07:18:08;;;;;;;0.73;0.63;;;;;;;19.84;52.38;102068.06;5221459;28;20117;-81
2022/08/09 07:20:39;;;;;;;30.05;2.25;;;;;;;19.84;53.54;102068.06;5202858;28;20053;-81
2022/08/09 07:23:11;;;;;;;1.13;1.05;;;;;;;19.80;54.39;102068.19;5218360;28;20026;-81
2022/08/09 07:25:41;;;;;;;0.90;0.85;;;;;;;19.87;53.44;102065.31;5217014;28;20060;-81
2022/08/09 07:28:12;;;;;;;0.40;0.40;;;;;;;19.89;52.86;102074.06;5207819;28;20025;-80
2022/08/09 07:30:43;;;;;;;0.25;0.25;;;;;;;19.90;52.37;102059.81;5189062;28;20467;-81
2022/08/09 07:33:13;;;;;;;0.40;0.40;;;;;;;19.99;52.89;102064.72;5205712;28;20660;-81
2022/08/09 07:35:44;;;;;;;0.30;0.30;;;;;;;19.98;54.40;102063.00;5185017;28;20127;-80
2022/08/09 07:38:14;;;;;;;0.50;0.50;;;;;;;20.03;53.40;102062.78;5220850;28;20033;-81
2022/08/09 07:40:45;;;;;;;1.15;1.00;;;;;;;20.10;52.51;102066.91;5221532;28;20052;-80
2022/08/09 07:43:15;;;;;;;0.73;0.73;;;;;;;20.14;52.37;102055.19;5217366;28;20053;-80
2022/08/09 07:45:46;;;;;;;0.55;0.55;;;;;;;20.14;53.57;102057.84;5222704;28;20061;-81
2022/08/09 07:48:17;;;;;;;0.80;0.50;;;;;;;20.20;52.31;102054.03;5205149;28;20029;-81
2022/08/09 07:50:47;;;;;;;0.50;0.50;;;;;;;20.21;52.51;102061.06;5199843;28;20037;-81
2022/08/09 07:53:18;;;;;;;0.90;0.47;;;;;;;20.23;53.00;102059.19;5190535;28;20087;-81
2022/08/09 07:55:48;;;;;;;1.27;0.63;;;;;;;20.26;53.31;102065.25;5209396;28;20060;-80
2022/08/09 07:58:19;;;;;;;0.75;0.70;;;;;;;20.31;52.72;102058.84;5215825;28;20063;-81
2022/08/09 08:00:50;;;;;;;0.30;0.30;;;;;;;20.36;52.44;102056.81;5226765;28;20565;-81
2022/08/09 08:03:20;;;;;;;0.77;0.77;;;;;;;20.38;52.60;102054.97;5188515;28;20783;-81
2022/08/09 08:05:51;;;;;;;3.78;1.50;;;;;;;20.37;52.70;102061.22;5204445;28;20056;-81
2022/08/09 08:08:23;;;;;;;7.78;1.50;;;;;;;20.44;52.75;102060.88;5224974;28;20030;-81
2022/08/09 08:10:53;;;;;;;0.40;0.40;;;;;;;20.54;52.95;102071.06;5253043;28;20041;-81
2022/08/09 08:13:24;;;;;;;0.63;0.60;;;;;;;20.54;52.70;102065.75;5218602;28;20064;-80
2022/08/09 08:15:54;;;;;;;0.43;0.43;;;;;;;20.64;52.13;102066.19;5215678;28;20067;-80
2022/08/09 08:18:25;;;;;;;0.28;0.28;;;;;;;20.67;52.16;102068.69;5205121;28;20033;-80
2022/08/09 08:20:55;;;;;;;0.63;0.57;;;;;;;20.69;52.39;102073.03;5204522;28;20498;-81
2022/08/09 08:23:26;;;;;;;0.30;0.30;;;;;;;20.70;52.00;102074.72;5224311;28;20044;-80
2022/08/09 08:25:56;;;;;;;0.25;0.25;;;;;;;20.71;52.14;102073.78;5223367;28;20341;-81
2022/08/09 08:28:27;;;;;;;0.30;0.30;;;;;;;20.82;52.96;102075.13;5236370;28;20103;-81
2022/08/09 08:30:58;;;;;;;0.30;0.30;;;;;;;20.77;52.54;102077.16;5242039;28;20739;-81
2022/08/09 08:33:29;;;;;;;0.63;0.63;;;;;;;20.86;52.31;102074.88;5217606;28;20029;-81
2022/08/09 08:36:00;;;;;;;0.50;0.50;;;;;;;20.97;51.73;102076.16;5221858;28;20072;-82
2022/08/09 08:38:31;;;;;;;0.28;0.28;;;;;;;21.00;51.70;102068.88;5206379;28;20039;-81
2022/08/09 08:41:04;;;;;;;0.88;0.85;;;;;;;20.98;51.59;102072.56;5210419;28;20053;-81
2022/08/09 08:43:38;;;;;;;0.20;0.20;;;;;;;21.00;51.72;102070.66;5187739;28;20025;-81
2022/08/09 08:46:16;;;;;;;0.63;0.63;;;;;;;21.09;51.52;102061.34;5187414;28;20049;-81
2022/08/09 08:48:47;;;;;;;0.30;0.30;;;;;;;21.18;51.40;102071.56;5188460;28;20057;-81
2022/08/09 08:51:18;;;;;;;1.40;1.05;;;;;;;21.16;51.17;102066.28;5198095;28;20076;-81
2022/08/09 08:53:53;;;;;;;0.40;0.40;;;;;;;21.30;50.90;102076.25;5219142;28;20024;-81
2022/08/09 08:56:24;;;;;;;0.75;0.75;;;;;;;21.26;50.99;102072.03;5193897;28;20128;-81
2022/08/09 08:58:57;;;;;;;0.75;0.50;;;;;;;21.30;51.15;102072.75;5206127;28;20108;-82
2022/08/09 09:01:28;;;;;;;0.32;0.32;;;;;;;21.32;50.72;102062.84;5210526;28;20101;-81
2022/08/09 09:04:00;;;;;;;1.48;0.82;;;;;;;21.34;51.19;102067.16;5197569;28;20120;-81
2022/08/09 09:06:34;;;;;;;0.50;0.50;;;;;;;21.44;51.03;102072.03;5190451;28;20052;-81
2022/08/09 09:09:06;;;;;;;0.22;0.22;;;;;;;21.49;50.64;102080.66;5199240;28;20102;-81
2022/08/09 09:11:41;;;;;;;0.20;0.20;;;;;;;21.51;50.68;102073.44;5204632;28;20106;-81
2022/08/09 09:14:18;;;;;;;1.05;0.50;;;;;;;21.55;50.54;102069.66;5184344;28;20063;-81
2022/08/09 09:16:49;;;;;;;0.52;0.40;;;;;;;21.61;50.46;102077.38;5202406;28;20040;-81
2022/08/09 09:19:19;;;;;;;0.32;0.32;;;;;;;21.66;50.65;102075.34;5205559;28;20254;-81
2022/08/09 09:22:06;;;;;;;0.80;0.80;;;;;;;21.69;50.21;102075.16;5224255;28;20553;-82
2022/08/09 09:24:42;;;;;;;0.47;0.40;;;;;;;21.84;50.18;102075.31;5230788;28;20051;-81
2022/08/09 09:27:17;;;;;;;0.57;0.57;;;;;;;21.79;49.87;102069.34;5229799;28;20072;-82
2022/08/09 09:29:48;;;;;;;0.40;0.40;;;;;;;21.87;49.55;102067.13;5205438;28;20036;-82
2022/08/09 09:32:25;;;;;;;0.85;0.68;;;;;;;21.94;49.19;102071.19;5184563;28;20045;-82
2022/08/09 09:35:09;;;;;;;1.45;0.63;;;;;;;21.97;49.50;102065.69;5227670;28;20039;-81
2022/08/09 09:37:40;;;;;;;0.47;0.47;;;;;;;21.99;48.91;102074.47;5200931;28;20048;-82
2022/08/09 09:40:10;;;;;;;1.45;0.65;;;;;;;22.10;48.99;102070.38;5227564;28;20036;-81
2022/08/09 09:42:41;;;;;;;0.43;0.43;;;;;;;22.13;48.97;102068.38;5203631;28;20128;-82
2022/08/09 09:45:11;;;;;;;0.65;0.63;;;;;;;22.16;48.70;102070.88;5218072;28;20067;-81
2022/08/09 09:47:45;;;;;;;0.50;0.50;;;;;;;22.29;47.91;102068.38;5217413;28;20079;-81
2022/08/09 09:50:21;;;;;;;3.78;1.17;;;;;;;22.38;47.42;102069.72;5209426;28;20401;-81
2022/08/09 09:52:52;;;;;;;1.45;0.60;;;;;;;22.34;47.66;102068.13;5218015;28;20037;-82
2022/08/09 09:55:23;;;;;;;0.50;0.50;;;;;;;22.37;48.04;102072.44;5188458;28;20459;-81
2022/08/09 09:57:58;;;;;;;1.58;0.60;;;;;;;22.44;47.88;102073.84;5198870;28;20050;-81
2022/08/09 10:00:29;;;;;;;0.43;0.40;;;;;;;22.53;47.70;102075.16;5241111;28;20063;-81
2022/08/09 10:02:59;;;;;;;0.22;0.22;;;;;;;22.60;47.05;102073.88;5212807;28;20096;-81
2022/08/09 10:05:30;;;;;;;5.25;2.38;;;;;;;22.68;47.57;102076.97;5203915;28;20040;-80
2022/08/09 10:08:09;;;;;;;0.20;0.20;;;;;;;22.69;47.67;102078.69;5225241;28;20039;-81
2022/08/09 10:10:40;;;;;;;0.30;0.30;;;;;;;22.72;47.50;102072.31;5228180;28;20028;-81
2022/08/09 10:13:11;;;;;;;0.13;0.13;;;;;;;22.74;47.49;102070.41;5230743;28;20107;-81
2022/08/09 10:15:50;;;;;;;0.30;0.30;;;;;;;22.83;47.30;102069.00;5214270;28;20501;-81
2022/08/09 10:18:20;;;;;;;0.20;0.20;;;;;;;;;;5224034;28;20106;-81
2022/08/09 10:20:51;;;;;;;0.63;0.63;;;;;;;22.91;47.49;102067.63;5206306;28;20466;-81
2022/08/09 10:23:24;;;;;;;0.55;0.55;;;;;;;23.10;45.88;102072.75;5216225;28;20056;-81
2022/08/09 10:25:55;;;;;;;0.77;0.77;;;;;;;23.08;47.11;102063.09;5226645;28;20045;-81
2022/08/09 10:28:28;;;;;;;0.38;0.38;;;;;;;23.10;46.67;102071.88;5206305;28;20083;-81
2022/08/09 10:30:59;;;;;;;0.70;0.50;;;;;;;23.16;46.69;102073.34;5206839;28;20029;-81
2022/08/09 10:33:34;;;;;;;0.28;0.28;;;;;;;23.19;46.47;102068.69;5211014;28;20257;-81
2022/08/09 10:36:07;;;;;;;0.85;0.30;;;;;;;23.23;46.67;102078.28;5237704;28;20444;-81
2022/08/09 10:38:40;;;;;;;0.30;0.30;;;;;;;23.31;46.34;102068.94;5220959;28;20029;-81
2022/08/09 10:41:13;;;;;;;1.55;0.65;;;;;;;23.36;46.13;102072.19;5218005;28;20052;-81
2022/08/09 10:43:46;;;;;;;0.45;0.45;;;;;;;23.42;45.33;102071.84;5221257;28;20531;-81
2022/08/09 10:46:16;;;;;;;0.30;0.30;;;;;;;23.43;45.82;102068.16;5200365;28;20052;-81
2022/08/09 10:48:57;;;;;;;0.73;0.73;;;;;;;23.46;44.89;102068.00;5225591;28;20232;-81
2022/08/09 10:51:46;;;;;;;0.45;0.45;;;;;;;23.62;44.84;102067.06;5207735;28;20715;-81
2022/08/09 10:54:22;;;;;;;0.30;0.30;;;;;;;23.56;45.50;102058.44;5219420;28;20243;-81
2022/08/09 10:57:08;;;;;;;0.47;0.47;;;;;;;23.66;45.89;102045.34;5214955;28;20113;-81
2022/08/09 10:59:40;;;;;;;0.32;0.32;;;;;;;23.72;45.44;102046.78;5218803;28;20071;-81
2022/08/09 11:02:34;;;;;;;0.82;0.30;;;;;;;23.80;45.05;102049.84;5197785;28;20244;-81
2022/08/09 11:05:18;;;;;;;1.50;1.15;;;;;;;23.92;44.30;102052.72;5247383;28;20029;-80
2022/08/09 11:07:50;;;;;;;4.43;0.30;;;;;;;23.96;44.54;102046.25;5220783;28;20053;-81
2022/08/09 11:10:49;;;;;;;0.30;0.30;;;;;;;23.98;43.35;102049.69;5206009;28;20029;-81
2022/08/09 11:13:20;;;;;;;0.38;0.38;;;;;;;24.00;43.69;102045.09;5201537;28;20119;-81
2022/08/09 11:16:31;;;;;;;0.22;0.22;;;;;;;24.08;42.97;102048.16;5196068;28;20045;-81
2022/08/09 11:19:05;;;;;;;3.10;0.75;;;;;;;24.16;42.90;102048.53;5202586;28;20497;-81
2022/08/09 11:21:52;;;;;;;0.30;0.30;;;;;;;24.26;42.24;102034.50;5210851;28;20638;-81
2022/08/09 11:24:22;;;;;;;0.80;0.63;;;;;;;24.28;43.23;102032.59;5205808;28;20044;-81
2022/08/09 11:26:56;;;;;;;0.30;0.30;;;;;;;24.31;42.72;102043.13;5198867;28;20673;-84
2022/08/09 11:30:08;;;;;;;0.63;0.63;;;;;;;24.41;42.75;102038.03;5215227;28;20096;-78
2022/08/09 11:32:42;;;;;;;2.67;1.15;;;;;;;24.40;42.06;102033.63;5109842;28;20054;-78
2022/08/09 11:35:27;;;;;;;1.23;0.90;;;;;;;24.43;41.84;102045.00;5077548;29;20946;-79
2022/08/09 11:38:12;;;;;;;0.88;0.82;;;;;;;24.49;41.72;102031.22;5180417;28;20144;-79
2022/08/09 11:40:43;;;;;;;1.02;0.73;;;;;;;24.52;42.50;102031.00;5217271;28;20136;-78
2022/08/09 11:43:16;;;;;;;0.43;0.43;;;;;;;24.55;42.33;102034.44;5195360;28;20124;-79
2022/08/09 11:45:54;;;;;;;;;;;;;;;24.63;42.27;102019.53;5185472;28;20033;-78
2022/08/09 11:48:28;;;;;;;0.35;0.35;;;;;;;24.73;41.58;102022.53;5220978;28;19947;-78
2022/08/09 11:51:00;;;;;;;0.38;0.38;;;;;;;24.76;42.34;102024.97;5196147;28;20103;-79
2022/08/09 11:53:32;;;;;;;0.43;0.43;;;;;;;24.81;41.89;102020.19;5205694;28;20254;-78
2022/08/09 11:56:15;;;;;;;0.30;0.30;;;;;;;24.88;42.12;102015.25;5185014;28;20041;-78